createdAt,value
2017-12-15T00:00:23.630Z,94313.70
2017-12-15T00:02:49.512Z,94305.05
2017-12-15T00:05:15.362Z,94308.22
2017-12-15T00:07:41.206Z,94294.13
2017-12-15T00:10:07.067Z,94297.13
2017-12-15T00:12:36.790Z,94293.97
2017-12-15T00:15:02.652Z,94299.19
2017-12-15T00:17:31.660Z,94316.94
2017-12-15T00:19:57.598Z,94301.27
2017-12-15T00:22:25.240Z,94289.58
2017-12-15T00:24:51.150Z,94285.56
2017-12-15T00:27:20.166Z,94281.21
2017-12-15T00:29:46.074Z,94273.60
2017-12-15T00:32:11.941Z,94280.11
2017-12-15T00:34:37.819Z,94282.58
2017-12-15T00:37:03.679Z,94289.70
2017-12-15T00:39:32.957Z,94309.05
2017-12-15T00:41:58.804Z,94296.53
2017-12-15T00:44:26.629Z,94297.06
2017-12-15T00:46:52.484Z,94297.00
2017-12-15T00:49:22.348Z,94311.12
2017-12-15T00:51:48.295Z,94307.44
2017-12-15T00:54:16.163Z,94301.67
2017-12-15T00:56:42.034Z,94300.91
2017-12-15T00:59:11.800Z,94310.34
2017-12-15T01:01:37.673Z,94299.70
2017-12-15T01:04:05.468Z,94297.31
2017-12-15T01:06:31.317Z,94307.45
2017-12-15T01:08:57.231Z,94294.94
2017-12-15T01:11:23.161Z,94295.87
2017-12-15T01:13:49.050Z,94302.72
2017-12-15T01:16:16.725Z,94317.89
2017-12-15T01:18:42.613Z,94318.23
2017-12-15T01:21:12.311Z,94333.52
2017-12-15T01:23:38.181Z,94344.38
2017-12-15T01:26:06.968Z,94342.94
2017-12-15T01:28:32.888Z,94343.01
2017-12-15T01:31:00.645Z,94337.36
2017-12-15T01:33:26.559Z,94335.38
2017-12-15T01:35:55.063Z,94331.59
2017-12-15T01:38:20.939Z,94337.30
2017-12-15T01:43:17.917Z,94347.06
2017-12-15T01:45:44.075Z,94366.86
2017-12-15T01:48:09.998Z,94370.91
2017-12-15T01:50:35.827Z,94394.69
2017-12-15T01:53:02.271Z,94413.84
2017-12-15T01:55:28.138Z,94443.05
2017-12-15T01:57:58.073Z,94457.28
2017-12-15T02:00:23.953Z,94454.41
2017-12-15T02:02:51.785Z,94462.86
2017-12-15T02:05:17.661Z,94445.37
2017-12-15T02:07:47.529Z,94443.86
2017-12-15T02:10:13.409Z,94453.98
2017-12-15T02:12:42.431Z,94468.61
2017-12-15T02:15:08.279Z,94461.25
2017-12-15T02:17:37.243Z,94457.13
2017-12-15T02:20:03.130Z,94457.59
2017-12-15T02:22:28.981Z,94447.98
2017-12-15T02:24:54.856Z,94449.86
2017-12-15T02:27:20.861Z,94449.20
2017-12-15T02:29:47.785Z,94450.11
2017-12-15T02:32:13.647Z,94434.03
2017-12-15T02:34:43.504Z,94449.97
2017-12-15T02:37:09.376Z,94453.72
2017-12-15T02:39:37.203Z,94446.78
2017-12-15T02:42:03.105Z,94450.55
2017-12-15T02:44:32.893Z,94464.34
2017-12-15T02:46:58.769Z,94468.72
2017-12-15T02:49:26.565Z,94477.85
2017-12-15T02:51:52.475Z,94466.13
2017-12-15T02:54:21.411Z,94468.09
2017-12-15T02:56:47.295Z,94484.02
2017-12-15T02:59:13.136Z,94511.06
2017-12-15T03:01:38.999Z,94510.94
2017-12-15T03:04:04.856Z,94516.31
2017-12-15T03:06:32.612Z,94533.64
2017-12-15T03:08:58.517Z,94540.11
2017-12-15T03:11:27.209Z,94545.59
2017-12-15T03:13:53.096Z,94555.94
2017-12-15T03:16:22.041Z,94556.52
2017-12-15T03:18:47.941Z,94559.11
2017-12-15T03:21:16.593Z,94563.73
2017-12-15T03:23:42.467Z,94582.03
2017-12-15T03:26:11.416Z,94581.95
2017-12-15T03:28:37.298Z,94588.94
2017-12-15T03:31:06.802Z,94590.18
2017-12-15T03:33:32.660Z,94592.54
2017-12-15T03:35:58.542Z,94593.91
2017-12-15T03:38:24.447Z,94601.30
2017-12-15T03:40:50.319Z,94603.88
2017-12-15T03:43:19.449Z,94614.36
2017-12-15T03:45:46.153Z,94620.86
2017-12-15T03:48:13.234Z,94627.92
2017-12-15T03:50:39.134Z,94624.59
2017-12-15T03:53:08.979Z,94615.41
2017-12-15T03:55:34.835Z,94625.30
2017-12-15T03:58:03.737Z,94628.78
2017-12-15T04:00:29.594Z,94629.36
2017-12-15T04:02:58.606Z,94637.55
2017-12-15T04:05:24.494Z,94640.89
2017-12-15T04:07:52.207Z,94645.64
2017-12-15T04:10:18.127Z,94653.58
2017-12-15T04:12:43.987Z,94650.23
2017-12-15T04:15:09.856Z,94660.83
2017-12-15T04:17:35.781Z,94655.32
2017-12-15T04:20:05.032Z,94658.73
2017-12-15T04:22:30.916Z,94671.14
2017-12-15T04:24:58.599Z,94671.42
2017-12-15T04:27:24.464Z,94673.31
2017-12-15T04:29:54.310Z,94663.42
2017-12-15T04:32:20.193Z,94666.20
2017-12-15T04:34:49.099Z,94662.16
2017-12-15T04:37:14.977Z,94657.95
2017-12-15T04:39:42.914Z,94661.31
2017-12-15T04:42:08.771Z,94661.86
2017-12-15T04:44:38.576Z,94667.07
2017-12-15T04:47:04.496Z,94686.52
2017-12-15T04:49:30.370Z,94678.95
2017-12-15T04:51:56.269Z,94686.70
2017-12-15T04:54:22.165Z,94679.65
2017-12-15T04:56:49.249Z,94679.37
2017-12-15T04:59:15.169Z,94687.70
2017-12-15T05:01:44.967Z,94685.34
2017-12-15T05:04:10.849Z,94679.46
2017-12-15T05:06:38.608Z,94686.00
2017-12-15T05:09:04.505Z,94690.55
2017-12-15T05:11:34.333Z,94689.49
2017-12-15T05:14:00.238Z,94686.96
2017-12-15T05:16:28.047Z,94677.91
2017-12-15T05:18:53.959Z,94677.91
2017-12-15T05:21:23.719Z,94687.28
2017-12-15T05:23:49.622Z,94689.88
2017-12-15T05:26:15.531Z,94689.72
2017-12-15T05:28:41.409Z,94699.40
2017-12-15T05:31:07.284Z,94705.40
2017-12-15T05:33:34.482Z,94714.80
2017-12-15T05:36:00.378Z,94730.09
2017-12-15T05:38:29.295Z,94735.70
2017-12-15T05:40:55.206Z,94737.14
2017-12-15T05:43:24.157Z,94738.16
2017-12-15T05:45:50.078Z,94730.84
2017-12-15T05:48:17.704Z,94730.94
2017-12-15T05:50:43.535Z,94731.98
2017-12-15T05:55:40.366Z,94732.55
2017-12-15T05:58:07.671Z,94730.48
2017-12-15T06:00:33.532Z,94739.33
2017-12-15T06:02:59.417Z,94740.22
2017-12-15T06:05:25.267Z,94739.80
2017-12-15T06:07:51.169Z,94745.62
2017-12-15T06:10:19.476Z,94745.09
2017-12-15T06:12:46.090Z,94744.98
2017-12-15T06:15:14.787Z,94752.67
2017-12-15T06:17:40.633Z,94751.89
2017-12-15T06:20:09.511Z,94755.77
2017-12-15T06:22:35.407Z,94754.99
2017-12-15T06:25:04.073Z,94768.41
2017-12-15T06:27:29.933Z,94769.62
2017-12-15T06:29:59.722Z,94770.29
2017-12-15T06:32:25.652Z,94766.05
2017-12-15T06:34:53.545Z,94775.17
2017-12-15T06:37:19.439Z,94762.92
2017-12-15T06:39:45.340Z,94765.14
2017-12-15T06:42:11.218Z,94766.72
2017-12-15T06:44:37.156Z,94770.92
2017-12-15T06:47:06.129Z,94773.97
2017-12-15T06:49:32.037Z,94776.89
2017-12-15T06:51:59.902Z,94765.81
2017-12-15T06:54:25.822Z,94766.09
2017-12-15T06:56:55.632Z,94769.21
2017-12-15T06:59:21.499Z,94775.38
2017-12-15T07:01:50.386Z,94776.16
2017-12-15T07:04:16.232Z,94774.91
2017-12-15T07:06:43.328Z,94785.42
2017-12-15T07:09:09.232Z,94788.05
2017-12-15T07:11:38.117Z,94780.09
2017-12-15T07:14:03.925Z,94790.30
2017-12-15T07:16:29.744Z,94784.35
2017-12-15T07:18:57.430Z,94767.73
2017-12-15T07:21:23.399Z,94769.72
2017-12-15T07:23:49.748Z,94767.02
2017-12-15T07:26:15.687Z,94765.95
2017-12-15T07:28:44.398Z,94769.62
2017-12-15T07:31:10.224Z,94766.56
2017-12-15T07:33:40.024Z,94755.83
2017-12-15T07:36:05.864Z,94755.63
2017-12-15T07:38:35.169Z,94754.73
2017-12-15T07:41:01.049Z,94760.38
2017-12-15T07:43:29.987Z,94758.84
2017-12-15T07:45:55.845Z,94765.48
2017-12-15T07:48:23.556Z,94756.47
2017-12-15T07:50:49.384Z,94765.11
2017-12-15T07:53:15.200Z,94771.27
2017-12-15T07:55:41.013Z,94760.03
2017-12-15T07:58:06.865Z,94776.11
2017-12-15T08:00:36.540Z,94777.56
2017-12-15T08:03:02.376Z,94777.65
2017-12-15T08:05:30.259Z,94778.75
2017-12-15T08:07:56.070Z,94784.66
2017-12-15T08:10:25.080Z,94774.34
2017-12-15T08:12:50.949Z,94778.80
2017-12-15T08:15:19.955Z,94785.88
2017-12-15T08:17:45.818Z,94787.37
2017-12-15T08:20:14.742Z,94780.08
2017-12-15T08:22:40.595Z,94772.00
2017-12-15T08:25:09.489Z,94777.03
2017-12-15T08:27:35.349Z,94769.81
2017-12-15T08:30:01.176Z,94765.04
2017-12-15T08:32:27.036Z,94766.16
2017-12-15T08:34:52.877Z,94765.55
2017-12-15T08:37:22.112Z,94760.98
2017-12-15T08:39:47.987Z,94763.16
2017-12-15T08:42:14.938Z,94759.31
2017-12-15T08:44:40.817Z,94760.88
2017-12-15T08:47:10.399Z,94752.83
2017-12-15T08:49:36.281Z,94750.32
2017-12-15T08:52:06.886Z,94751.61
2017-12-15T08:54:32.955Z,94750.98
2017-12-15T08:56:59.769Z,94751.88
2017-12-15T08:59:25.629Z,94741.41
2017-12-15T09:01:58.044Z,94739.22
2017-12-15T09:04:24.080Z,94742.91
2017-12-15T09:06:49.935Z,94753.02
2017-12-15T09:09:15.806Z,94743.13
2017-12-15T09:11:41.715Z,94746.12
2017-12-15T09:14:07.585Z,94743.25
2017-12-15T09:16:33.438Z,94743.39
2017-12-15T09:19:00.944Z,94747.27
2017-12-15T09:21:26.783Z,94749.18
2017-12-15T09:23:56.553Z,94756.37
2017-12-15T09:26:22.437Z,94755.15
2017-12-15T09:28:51.313Z,94758.86
2017-12-15T09:31:17.892Z,94762.66
2017-12-15T09:33:45.726Z,94759.77
2017-12-15T09:36:12.165Z,94757.83
2017-12-15T09:38:39.774Z,94748.33
2017-12-15T09:41:05.676Z,94740.63
2017-12-15T09:43:31.500Z,94738.69
2017-12-15T09:45:57.329Z,94729.23
2017-12-15T09:48:23.337Z,94725.86
2017-12-15T09:50:50.815Z,94694.50
2017-12-15T09:53:16.695Z,94723.56
2017-12-15T09:55:46.176Z,94719.52
2017-12-15T09:58:12.075Z,94717.13
2017-12-15T10:00:40.119Z,94720.31
2017-12-15T10:03:05.999Z,94714.75
2017-12-15T10:05:34.925Z,94716.19
2017-12-15T10:08:00.992Z,94716.32
2017-12-15T10:10:30.050Z,94711.78
2017-12-15T10:12:56.212Z,94708.98
2017-12-15T10:15:25.833Z,94702.87
2017-12-15T10:17:51.657Z,94704.00
2017-12-15T10:20:17.481Z,94709.20
2017-12-15T10:22:43.598Z,94717.06
2017-12-15T10:25:09.456Z,94712.86
2017-12-15T10:27:36.927Z,94713.26
2017-12-15T10:30:02.792Z,94713.88
2017-12-15T10:32:31.749Z,94705.84
2017-12-15T10:37:26.534Z,94710.94
2017-12-15T10:39:52.357Z,94715.63
2017-12-15T10:42:21.237Z,94716.11
2017-12-15T10:44:47.067Z,94708.08
2017-12-15T10:47:16.867Z,94721.58
2017-12-15T10:49:42.738Z,94711.44
2017-12-15T10:52:11.570Z,94713.09
2017-12-15T10:54:37.377Z,94720.88
2017-12-15T10:57:03.236Z,94718.08
2017-12-15T10:59:29.093Z,94720.88
2017-12-15T11:01:54.923Z,94722.48
2017-12-15T11:04:21.506Z,94724.47
2017-12-15T11:06:47.329Z,94727.95
2017-12-15T11:09:16.879Z,94723.52
2017-12-15T11:11:42.731Z,94722.99
2017-12-15T11:14:12.418Z,94719.83
2017-12-15T11:16:38.267Z,94707.67
2017-12-15T11:19:07.258Z,94720.17
2017-12-15T11:21:33.112Z,94727.02
2017-12-15T11:24:00.868Z,94724.34
2017-12-15T11:26:26.713Z,94727.25
2017-12-15T11:28:55.732Z,94723.31
2017-12-15T11:31:21.582Z,94728.16
2017-12-15T11:33:47.457Z,94732.38
2017-12-15T11:36:13.351Z,94715.61
2017-12-15T11:38:39.200Z,94722.44
2017-12-15T11:41:08.549Z,94725.52
2017-12-15T11:43:34.411Z,94732.41
2017-12-15T11:46:03.379Z,94729.08
2017-12-15T11:48:29.207Z,94722.09
2017-12-15T11:50:58.108Z,94719.54
2017-12-15T11:53:23.958Z,94725.70
2017-12-15T11:55:51.722Z,94732.98
2017-12-15T11:58:17.599Z,94736.78
2017-12-15T12:00:47.411Z,94737.00
2017-12-15T12:03:13.262Z,94736.66
2017-12-15T12:05:42.212Z,94741.31
2017-12-15T12:08:08.096Z,94753.74
2017-12-15T12:10:33.954Z,94744.64
2017-12-15T12:12:59.787Z,94749.30
2017-12-15T12:15:25.664Z,94753.97
2017-12-15T12:17:52.717Z,94757.80
2017-12-15T12:20:18.593Z,94757.67
2017-12-15T12:22:47.592Z,94762.66
2017-12-15T12:25:13.462Z,94751.48
2017-12-15T12:27:42.344Z,94761.09
2017-12-15T12:30:08.182Z,94765.16
2017-12-15T12:32:37.951Z,94767.13
2017-12-15T12:35:03.788Z,94765.99
2017-12-15T12:37:32.706Z,94772.33
2017-12-15T12:39:58.572Z,94773.34
2017-12-15T12:42:27.564Z,94775.81
2017-12-15T12:44:53.406Z,94783.12
2017-12-15T12:47:19.242Z,94782.66
2017-12-15T12:49:45.119Z,94785.09
2017-12-15T12:52:11.015Z,94784.89
2017-12-15T12:54:37.872Z,94785.80
2017-12-15T12:57:03.685Z,94794.11
2017-12-15T12:59:32.543Z,94792.63
2017-12-15T13:01:58.385Z,94789.06
2017-12-15T13:04:27.598Z,94795.19
2017-12-15T13:06:53.445Z,94794.25
2017-12-15T13:09:22.486Z,94789.77
2017-12-15T13:11:48.394Z,94797.31
2017-12-15T13:14:17.159Z,94801.84
2017-12-15T13:16:43.002Z,94798.95
2017-12-15T13:19:12.014Z,94810.45
2017-12-15T13:21:37.850Z,94817.65
2017-12-15T13:24:03.716Z,94819.70
2017-12-15T13:26:29.594Z,94817.48
2017-12-15T13:28:55.400Z,94828.02
2017-12-15T13:31:22.975Z,94829.77
2017-12-15T13:33:48.891Z,94832.23
2017-12-15T13:36:18.694Z,94834.68
2017-12-15T13:38:44.548Z,94834.32
2017-12-15T13:41:12.352Z,94832.11
2017-12-15T13:43:38.214Z,94842.81
2017-12-15T13:46:08.030Z,94849.83
2017-12-15T13:48:33.900Z,94853.53
2017-12-15T13:51:01.559Z,94854.72
2017-12-15T13:53:27.422Z,94857.20
2017-12-15T13:55:56.463Z,94855.17
2017-12-15T13:58:22.354Z,94852.48
2017-12-15T14:00:48.247Z,94854.98
2017-12-15T14:03:14.123Z,94853.21
2017-12-15T14:05:40.002Z,94849.05
2017-12-15T14:08:09.635Z,94842.23
2017-12-15T14:10:35.472Z,94837.67
2017-12-15T14:13:04.451Z,94830.13
2017-12-15T14:15:30.349Z,94837.91
2017-12-15T14:17:58.050Z,94832.09
2017-12-15T14:20:23.914Z,94839.33
2017-12-15T14:22:53.633Z,94833.85
2017-12-15T14:25:19.518Z,94841.84
2017-12-15T14:27:48.665Z,94839.92
2017-12-15T14:30:14.606Z,94836.36
2017-12-15T14:32:42.376Z,94837.95
2017-12-15T14:35:08.285Z,94840.37
2017-12-15T14:37:34.143Z,94843.48
2017-12-15T14:40:00.023Z,94847.97
2017-12-15T14:42:25.944Z,94851.97
2017-12-15T14:44:54.854Z,94847.58
2017-12-15T14:47:20.713Z,94858.26
2017-12-15T14:49:48.490Z,94862.80
2017-12-15T14:52:14.243Z,94874.80
2017-12-15T14:54:43.360Z,94875.39
2017-12-15T14:57:09.225Z,94875.67
2017-12-15T14:59:38.378Z,94874.83
2017-12-15T15:02:04.289Z,94884.27
2017-12-15T15:04:31.987Z,94882.92
2017-12-15T15:06:57.842Z,94888.13
2017-12-15T15:11:55.302Z,94887.12
2017-12-15T15:14:21.194Z,94890.65
2017-12-15T15:16:47.022Z,94890.28
2017-12-15T15:19:12.848Z,94892.72
2017-12-15T15:21:38.666Z,94895.89
2017-12-15T15:24:04.560Z,94892.28
2017-12-15T15:26:34.547Z,94903.93
2017-12-15T15:29:00.388Z,94898.69
2017-12-15T15:31:28.156Z,94894.19
2017-12-15T15:33:53.984Z,94892.05
2017-12-15T15:36:23.063Z,94897.33
2017-12-15T15:38:48.972Z,94898.28
2017-12-15T15:41:18.834Z,94901.50
2017-12-15T15:43:44.746Z,94893.98
2017-12-15T15:46:12.279Z,94893.63
2017-12-15T15:48:38.200Z,94901.50
2017-12-15T15:51:04.074Z,94897.39
2017-12-15T15:53:29.953Z,94904.48
2017-12-15T15:55:55.858Z,94906.47
2017-12-15T15:58:25.336Z,94912.20
2017-12-15T16:00:51.289Z,94915.18
2017-12-15T16:03:18.699Z,94916.60
2017-12-15T16:05:44.529Z,94920.02
2017-12-15T16:08:13.127Z,94917.74
2017-12-15T16:10:39.064Z,94909.95
2017-12-15T16:13:08.703Z,94912.16
2017-12-15T16:15:34.623Z,94906.38
2017-12-15T16:18:03.922Z,94902.55
2017-12-15T16:20:29.822Z,94901.05
2017-12-15T16:22:57.428Z,94904.68
2017-12-15T16:25:23.328Z,94901.83
2017-12-15T16:27:49.251Z,94909.45
2017-12-15T16:30:15.161Z,94912.19
2017-12-15T16:32:41.076Z,94910.91
2017-12-15T16:35:10.587Z,94915.41
2017-12-15T16:37:36.477Z,94911.91
2017-12-15T16:40:04.168Z,94913.59
2017-12-15T16:42:30.037Z,94919.53
2017-12-15T16:44:59.169Z,94923.21
2017-12-15T16:47:25.065Z,94919.72
2017-12-15T16:49:54.115Z,94920.17
2017-12-15T16:52:20.030Z,94921.94
2017-12-15T16:54:49.839Z,94916.52
2017-12-15T16:57:15.760Z,94916.81
2017-12-15T16:59:43.627Z,94924.71
2017-12-15T17:02:09.606Z,94920.13
2017-12-15T17:04:35.447Z,94915.13
2017-12-15T17:07:01.360Z,94914.86
2017-12-15T17:09:27.267Z,94915.73
2017-12-15T17:11:56.451Z,94910.25
2017-12-15T17:14:22.352Z,94912.83
2017-12-15T17:16:50.047Z,94904.69
2017-12-15T17:19:15.937Z,94911.83
2017-12-15T17:21:45.632Z,94916.02
2017-12-15T17:24:11.526Z,94913.53
2017-12-15T17:26:39.298Z,94917.75
2017-12-15T17:29:05.241Z,94920.55
2017-12-15T17:31:35.071Z,94923.26
2017-12-15T17:34:00.952Z,94932.03
2017-12-15T17:36:29.904Z,94931.69
2017-12-15T17:41:46.236Z,94935.38
2017-12-15T17:44:12.070Z,94936.15
2017-12-15T17:46:37.933Z,94934.95
2017-12-15T17:49:03.765Z,94935.14
2017-12-15T17:51:29.617Z,94933.93
2017-12-15T17:53:55.455Z,94935.05
2017-12-15T17:56:21.308Z,94939.78
2017-12-15T17:58:47.146Z,94934.72
2017-12-15T18:01:13.007Z,94936.66
2017-12-15T18:03:38.862Z,94935.88
2017-12-15T18:06:04.752Z,94945.70
2017-12-15T18:08:30.607Z,94944.03
2017-12-15T18:10:56.424Z,94945.70
2017-12-15T18:13:22.273Z,94945.70
2017-12-15T18:15:48.119Z,94947.52
2017-12-15T18:18:13.930Z,94956.70
2017-12-15T18:20:39.826Z,94952.34
2017-12-15T18:23:05.650Z,94953.86
2017-12-15T18:25:31.466Z,94950.73
2017-12-15T18:27:57.326Z,94949.19
2017-12-15T18:30:23.190Z,94953.66
2017-12-15T18:32:49.037Z,94960.27
2017-12-15T18:35:14.891Z,94958.98
2017-12-15T18:37:40.764Z,94959.98
2017-12-15T18:40:09.622Z,94959.20
2017-12-15T18:42:35.473Z,94959.18
2017-12-15T18:45:04.922Z,94934.08
2017-12-15T18:47:30.744Z,94949.23
2017-12-15T18:50:00.079Z,94951.16
2017-12-15T18:52:25.931Z,94958.94
2017-12-15T18:54:51.854Z,94957.00
2017-12-15T18:57:17.678Z,94956.22
2017-12-15T18:59:43.511Z,94955.84
2017-12-15T19:02:11.014Z,94959.94
2017-12-15T19:04:36.925Z,94960.22
2017-12-15T19:07:05.781Z,94957.28
2017-12-15T19:09:31.651Z,94947.49
2017-12-15T19:12:01.377Z,94960.12
2017-12-15T19:14:27.249Z,94959.68
2017-12-15T19:16:56.195Z,94962.33
2017-12-15T19:19:22.063Z,94959.20
2017-12-15T19:21:51.071Z,94969.53
2017-12-15T19:24:16.936Z,94969.84
2017-12-15T19:26:44.707Z,94969.20
2017-12-15T19:29:10.560Z,94970.45
2017-12-15T19:31:36.421Z,94978.09
2017-12-15T19:34:02.222Z,94984.28
2017-12-15T19:36:28.111Z,94991.75
2017-12-15T19:38:57.407Z,94990.83
2017-12-15T19:41:23.322Z,94988.69
2017-12-15T19:43:52.222Z,94993.27
2017-12-15T19:46:18.084Z,94997.09
2017-12-15T19:48:45.856Z,94994.81
2017-12-15T19:51:11.742Z,94992.63
2017-12-15T19:53:41.496Z,94990.33
2017-12-15T19:56:07.324Z,94989.59
2017-12-15T19:58:36.296Z,94988.64
2017-12-15T20:01:02.181Z,94994.00
2017-12-15T20:03:30.061Z,94991.14
2017-12-15T20:05:55.895Z,94998.11
2017-12-15T20:08:21.723Z,95002.98
2017-12-15T20:10:47.618Z,95002.17
2017-12-15T20:13:13.522Z,95001.67
2017-12-15T20:15:41.045Z,95008.46
2017-12-15T20:18:06.890Z,95010.81
2017-12-15T20:20:36.293Z,95016.95
2017-12-15T20:23:02.201Z,95022.89
2017-12-15T20:25:30.522Z,95019.70
2017-12-15T20:27:56.417Z,95019.02
2017-12-15T20:30:25.444Z,95022.77
2017-12-15T20:32:51.326Z,95018.09
2017-12-15T20:35:20.210Z,95015.03
2017-12-15T20:37:46.057Z,95013.25
2017-12-15T20:40:15.080Z,95010.31
2017-12-15T20:42:40.905Z,95014.03
2017-12-15T20:45:06.794Z,95020.64
2017-12-15T20:47:32.660Z,95021.98
2017-12-15T20:49:58.492Z,95022.95
2017-12-15T20:52:26.088Z,95024.86
2017-12-15T20:54:51.989Z,95021.61
2017-12-15T20:57:21.658Z,95025.23
2017-12-15T20:59:47.517Z,95028.52
2017-12-15T21:02:16.506Z,95030.52
2017-12-15T21:04:42.372Z,95028.11
2017-12-15T21:07:11.243Z,95023.13
2017-12-15T21:09:37.109Z,95023.87
2017-12-15T21:12:06.789Z,95024.91
2017-12-15T21:14:32.642Z,95022.42
2017-12-15T21:17:01.698Z,95021.08
2017-12-15T21:19:27.541Z,95026.61
2017-12-15T21:21:53.360Z,95020.84
2017-12-15T21:24:19.186Z,95023.38
2017-12-15T21:26:45.041Z,95023.63
2017-12-15T21:29:12.408Z,95019.70
2017-12-15T21:31:38.253Z,95017.63
2017-12-15T21:34:08.024Z,95021.71
2017-12-15T21:36:33.879Z,95020.22
2017-12-15T21:39:02.805Z,95025.59
2017-12-15T21:41:28.634Z,95027.68
2017-12-15T21:43:57.685Z,95028.29
2017-12-15T21:46:23.554Z,95029.28
2017-12-15T21:48:50.641Z,95028.89
2017-12-15T21:51:16.478Z,95031.70
2017-12-15T21:53:45.173Z,95038.95
2017-12-15T21:56:11.049Z,95042.55
2017-12-15T21:58:36.874Z,95044.43
2017-12-15T22:01:02.711Z,95042.57
2017-12-15T22:03:28.525Z,95043.52
2017-12-15T22:05:58.357Z,95053.70
2017-12-15T22:08:24.192Z,95050.67
2017-12-15T22:10:53.074Z,95054.10
2017-12-15T22:13:18.920Z,95052.23
2017-12-15T22:15:46.772Z,95059.55
2017-12-15T22:18:12.625Z,95065.31
2017-12-15T22:20:41.190Z,95043.42
2017-12-15T22:23:07.036Z,95063.47
2017-12-15T22:25:35.710Z,95060.61
2017-12-15T22:28:01.586Z,95064.23
2017-12-15T22:30:30.992Z,95061.53
2017-12-15T22:32:56.842Z,95060.92
2017-12-15T22:35:22.678Z,95063.80
2017-12-15T22:37:48.537Z,95065.17
2017-12-15T22:40:14.391Z,95070.90
2017-12-15T22:42:41.941Z,95069.19
2017-12-15T22:45:07.819Z,95073.83
2017-12-15T22:47:34.379Z,95067.13
2017-12-15T22:50:00.225Z,95069.87
2017-12-15T22:52:26.049Z,95063.95
2017-12-15T22:54:54.011Z,95073.06
2017-12-15T22:57:19.899Z,95064.89
2017-12-15T22:59:48.851Z,95072.37
2017-12-15T23:02:14.681Z,95071.92
2017-12-15T23:04:43.628Z,95070.16
2017-12-15T23:07:09.493Z,95072.91
2017-12-15T23:09:38.377Z,95071.31
2017-12-15T23:12:04.257Z,95072.05
2017-12-15T23:14:33.173Z,95073.41
2017-12-15T23:16:59.025Z,95073.50
2017-12-15T23:19:27.673Z,95074.23
2017-12-15T23:21:53.528Z,95072.66
2017-12-15T23:24:22.524Z,95071.67
2017-12-15T23:26:48.361Z,95071.09
2017-12-15T23:29:17.471Z,95078.02
2017-12-15T23:31:43.312Z,95067.25
2017-12-15T23:34:12.471Z,95072.42
2017-12-15T23:36:38.345Z,95076.47
2017-12-15T23:39:08.097Z,95071.61
2017-12-15T23:44:05.425Z,95075.98
2017-12-15T23:46:31.251Z,95072.38
2017-12-15T23:48:57.106Z,95080.67
2017-12-15T23:51:22.966Z,95083.61
2017-12-15T23:53:48.807Z,95090.94
2017-12-15T23:56:26.840Z,95098.73
2017-12-15T23:58:52.648Z,95092.05
